createdAt,value
2022-08-30T00:01:28.175Z,25.94
2022-08-30T00:03:56.607Z,26.59
2022-08-30T00:06:25.365Z,25.92
2022-08-30T00:08:53.051Z,25.73
2022-08-30T00:11:28.889Z,26.06
2022-08-30T00:13:58.133Z,25.84
2022-08-30T00:16:26.653Z,25.73
2022-08-30T00:18:54.642Z,25.63
2022-08-30T00:21:22.598Z,25.58
2022-08-30T00:23:49.826Z,25.65
2022-08-30T00:26:16.800Z,25.44
2022-08-30T00:28:43.938Z,25.35
2022-08-30T00:31:11.070Z,25.40
2022-08-30T00:33:42.336Z,25.84
2022-08-30T00:36:09.334Z,26.18
2022-08-30T00:38:36.379Z,26.10
2022-08-30T00:41:03.655Z,25.39
2022-08-30T00:43:36.880Z,25.17
2022-08-30T00:46:08.298Z,25.22
2022-08-30T00:48:38.138Z,25.30
2022-08-30T00:51:11.582Z,25.26
2022-08-30T00:53:45.232Z,25.11
2022-08-30T00:56:12.931Z,25.21
2022-08-30T00:58:45.474Z,25.13
2022-08-30T01:01:13.241Z,25.07
2022-08-30T01:03:43.249Z,25.15
2022-08-30T01:06:11.383Z,25.08
2022-08-30T01:08:39.136Z,25.04
2022-08-30T01:11:06.952Z,24.99
2022-08-30T01:13:35.256Z,24.92
2022-08-30T01:16:03.190Z,24.86
2022-08-30T01:18:32.108Z,24.88
2022-08-30T01:21:10.321Z,24.95
2022-08-30T01:23:43.392Z,24.90
2022-08-30T01:26:11.925Z,24.81
2022-08-30T01:28:40.896Z,24.70
2022-08-30T01:31:08.604Z,24.77
2022-08-30T01:33:38.360Z,24.82
2022-08-30T01:36:12.293Z,24.85
2022-08-30T01:38:59.694Z,24.82
2022-08-30T01:41:30.985Z,24.78
2022-08-30T01:44:04.487Z,24.84
2022-08-30T01:46:37.700Z,25.32
2022-08-30T01:49:10.508Z,25.45
2022-08-30T01:51:38.544Z,25.65
2022-08-30T01:54:06.133Z,24.92
2022-08-30T01:56:33.412Z,25.24
2022-08-30T01:59:03.141Z,25.38
2022-08-30T02:01:33.311Z,25.57
2022-08-30T02:04:00.566Z,25.57
2022-08-30T02:06:27.997Z,25.61
2022-08-30T02:08:55.350Z,25.31
2022-08-30T02:11:22.340Z,25.30
2022-08-30T02:13:50.121Z,24.52
2022-08-30T02:16:22.854Z,25.31
2022-08-30T02:18:52.680Z,25.35
2022-08-30T02:21:20.761Z,25.34
2022-08-30T02:23:47.928Z,25.35
2022-08-30T02:26:15.632Z,25.29
2022-08-30T02:28:49.885Z,25.39
2022-08-30T02:31:20.821Z,25.46
2022-08-30T02:33:51.356Z,25.30
2022-08-30T02:36:20.755Z,25.28
2022-08-30T02:38:48.859Z,25.19
2022-08-30T02:41:16.100Z,25.07
2022-08-30T02:43:43.321Z,25.06
2022-08-30T02:46:10.360Z,24.88
2022-08-30T02:48:37.395Z,24.94
2022-08-30T02:51:09.635Z,25.12
2022-08-30T02:53:40.846Z,24.99
2022-08-30T02:56:08.453Z,24.77
2022-08-30T02:58:36.185Z,25.01
2022-08-30T03:01:04.003Z,25.04
2022-08-30T03:03:31.555Z,24.93
2022-08-30T03:05:58.567Z,24.93
2022-08-30T03:08:25.634Z,24.95
2022-08-30T03:10:52.716Z,24.83
2022-08-30T03:13:27.447Z,24.77
2022-08-30T03:15:54.719Z,24.81
2022-08-30T03:18:23.270Z,24.87
2022-08-30T03:20:54.549Z,24.87
2022-08-30T03:23:24.085Z,24.80
2022-08-30T03:25:51.983Z,24.77
2022-08-30T03:28:19.016Z,24.68
2022-08-30T03:30:46.031Z,24.64
2022-08-30T03:33:13.098Z,24.79
2022-08-30T03:35:45.493Z,24.62
2022-08-30T03:38:12.428Z,24.65
2022-08-30T03:40:39.987Z,24.59
2022-08-30T03:43:07.672Z,24.58
2022-08-30T03:45:35.340Z,24.52
2022-08-30T03:48:02.950Z,24.53
2022-08-30T03:50:31.075Z,24.60
2022-08-30T03:53:01.383Z,24.56
2022-08-30T03:55:29.902Z,24.57
2022-08-30T03:57:57.672Z,24.47
2022-08-30T04:00:25.130Z,24.43
2022-08-30T04:02:52.107Z,24.40
2022-08-30T04:05:19.359Z,24.42
2022-08-30T04:07:46.467Z,24.46
2022-08-30T04:10:13.470Z,24.45
2022-08-30T04:12:40.425Z,24.52
2022-08-30T04:15:10.421Z,24.44
2022-08-30T04:17:37.429Z,24.36
2022-08-30T04:20:05.138Z,24.33
2022-08-30T04:22:32.071Z,24.28
2022-08-30T04:24:58.995Z,24.25
2022-08-30T04:27:26.081Z,24.20
2022-08-30T04:29:54.097Z,24.28
2022-08-30T04:32:23.288Z,24.28
2022-08-30T04:34:50.325Z,24.28
2022-08-30T04:37:17.245Z,24.33
2022-08-30T04:39:46.086Z,24.37
2022-08-30T04:42:13.077Z,24.18
2022-08-30T04:44:40.106Z,24.15
2022-08-30T04:47:10.084Z,24.22
2022-08-30T04:49:37.182Z,24.15
2022-08-30T04:52:06.302Z,24.02
2022-08-30T04:54:33.233Z,24.03
2022-08-30T04:57:00.880Z,24.05
2022-08-30T04:59:28.768Z,24.20
2022-08-30T05:01:55.796Z,24.13
2022-08-30T05:04:22.926Z,24.13
2022-08-30T05:06:50.145Z,23.89
2022-08-30T05:09:17.470Z,23.70
2022-08-30T05:11:45.983Z,23.74
2022-08-30T05:14:13.696Z,23.83
2022-08-30T05:16:41.751Z,23.83
2022-08-30T05:19:08.959Z,24.10
2022-08-30T05:21:36.223Z,23.92
2022-08-30T05:24:03.461Z,23.78
2022-08-30T05:26:33.337Z,24.14
2022-08-30T05:29:00.646Z,24.10
2022-08-30T05:31:31.751Z,24.13
2022-08-30T05:33:59.664Z,24.05
2022-08-30T05:36:29.616Z,24.23
2022-08-30T05:38:56.944Z,24.14
2022-08-30T05:41:26.494Z,24.23
2022-08-30T05:44:00.380Z,24.25
2022-08-30T05:49:06.838Z,24.28
2022-08-30T05:51:36.581Z,24.24
2022-08-30T05:54:13.007Z,23.85
2022-08-30T05:56:41.991Z,23.72
2022-08-30T05:59:09.396Z,23.95
2022-08-30T06:01:40.817Z,24.06
2022-08-30T06:04:10.792Z,23.62
2022-08-30T06:06:41.384Z,23.31
2022-08-30T06:09:10.438Z,23.61
2022-08-30T06:11:37.934Z,23.65
2022-08-30T06:14:05.809Z,23.69
2022-08-30T06:16:33.434Z,23.97
2022-08-30T06:19:00.607Z,24.10
2022-08-30T06:21:34.478Z,24.02
2022-08-30T06:24:05.060Z,24.27
2022-08-30T06:26:36.644Z,24.73
2022-08-30T06:29:03.659Z,24.16
2022-08-30T06:31:30.802Z,23.92
2022-08-30T06:33:57.919Z,24.15
2022-08-30T06:36:25.693Z,23.93
2022-08-30T06:38:56.993Z,24.01
2022-08-30T06:41:28.087Z,24.11
2022-08-30T06:43:56.718Z,24.31
2022-08-30T06:46:28.195Z,24.21
2022-08-30T06:48:56.860Z,24.42
2022-08-30T06:51:31.601Z,24.18
2022-08-30T06:53:59.603Z,24.03
2022-08-30T06:56:27.631Z,24.32
2022-08-30T06:58:54.845Z,24.43
2022-08-30T07:01:25.877Z,24.33
2022-08-30T07:03:53.965Z,24.41
2022-08-30T07:06:22.208Z,24.50
2022-08-30T07:08:55.952Z,24.37
2022-08-30T07:11:36.807Z,24.64
2022-08-30T07:14:05.078Z,24.73
2022-08-30T07:16:33.359Z,24.32
2022-08-30T07:19:01.862Z,24.07
2022-08-30T07:21:43.788Z,24.40
2022-08-30T07:24:12.455Z,24.86
2022-08-30T07:26:46.783Z,24.44
2022-08-30T07:29:14.106Z,24.36
2022-08-30T07:31:41.159Z,24.32
2022-08-30T07:34:09.626Z,24.56
2022-08-30T07:36:38.771Z,24.67
2022-08-30T07:39:07.268Z,24.54
2022-08-30T07:41:38.791Z,24.52
2022-08-30T07:44:08.317Z,24.74
2022-08-30T07:46:36.110Z,24.85
2022-08-30T07:49:04.148Z,25.31
2022-08-30T07:51:32.955Z,25.25
2022-08-30T07:54:00.572Z,24.87
2022-08-30T07:56:27.882Z,24.76
2022-08-30T07:58:55.424Z,25.39
2022-08-30T08:01:23.972Z,25.86
2022-08-30T08:03:51.878Z,25.37
2022-08-30T08:06:21.581Z,25.20
2022-08-30T08:08:49.560Z,25.16
2022-08-30T08:11:28.448Z,25.81
2022-08-30T08:13:58.800Z,25.65
2022-08-30T08:16:29.266Z,25.71
2022-08-30T08:18:57.015Z,25.93
2022-08-30T08:21:25.683Z,26.11
2022-08-30T08:23:53.129Z,26.25
2022-08-30T08:26:21.553Z,26.44
2022-08-30T08:28:48.579Z,26.51
2022-08-30T08:31:31.438Z,26.42
2022-08-30T08:34:03.042Z,26.07
2022-08-30T08:36:31.546Z,26.24
2022-08-30T08:38:59.501Z,26.47
2022-08-30T08:41:51.031Z,26.87
2022-08-30T08:44:41.226Z,26.99
2022-08-30T08:47:21.942Z,27.02
2022-08-30T08:49:54.362Z,26.68
2022-08-30T08:52:53.418Z,27.48
2022-08-30T08:55:23.632Z,27.24
2022-08-30T08:57:52.390Z,27.26
2022-08-30T09:00:19.726Z,27.39
2022-08-30T09:02:55.800Z,27.04
2022-08-30T09:05:27.921Z,27.17
2022-08-30T09:08:09.982Z,26.97
2022-08-30T09:10:50.058Z,26.49
2022-08-30T09:13:22.945Z,26.87
2022-08-30T09:15:54.822Z,26.89
2022-08-30T09:18:51.432Z,26.95
2022-08-30T09:21:25.307Z,26.84
2022-08-30T09:24:01.870Z,27.23
2022-08-30T09:26:37.420Z,26.66
2022-08-30T09:29:06.005Z,27.18
2022-08-30T09:31:47.597Z,27.87
2022-08-30T09:34:23.935Z,28.50
2022-08-30T09:36:53.982Z,28.03
2022-08-30T09:39:30.256Z,28.21
2022-08-30T09:42:25.354Z,28.07
2022-08-30T09:45:10.184Z,28.26
2022-08-30T09:47:42.469Z,28.26
2022-08-30T09:50:21.271Z,28.21
2022-08-30T09:53:23.444Z,28.58
2022-08-30T09:56:10.216Z,28.78
2022-08-30T09:59:05.428Z,28.52
2022-08-30T10:01:55.007Z,28.56
2022-08-30T10:04:59.013Z,27.30
2022-08-30T10:07:44.532Z,28.80
2022-08-30T10:10:45.876Z,28.67
2022-08-30T10:13:34.289Z,27.98
2022-08-30T10:16:32.870Z,28.67
2022-08-30T10:19:57.375Z,28.59
2022-08-30T10:23:18.784Z,28.64
2022-08-30T10:25:50.907Z,29.01
2022-08-30T10:28:43.711Z,27.36
2022-08-30T10:31:46.321Z,28.92
2022-08-30T10:34:40.048Z,29.05
2022-08-30T10:37:46.668Z,28.67
2022-08-30T10:40:51.077Z,29.49
2022-08-30T10:43:41.448Z,30.10
2022-08-30T10:46:20.110Z,29.41
2022-08-30T10:48:48.604Z,29.51
2022-08-30T10:51:40.639Z,29.63
2022-08-30T10:57:05.522Z,30.44
2022-08-30T10:59:34.806Z,30.71
2022-08-30T11:02:35.988Z,31.25
2022-08-30T11:05:24.052Z,31.32
2022-08-30T11:08:30.022Z,31.32
2022-08-30T11:11:29.762Z,31.30
2022-08-30T11:14:05.435Z,30.67
2022-08-30T11:16:40.746Z,32.12
2022-08-30T11:19:22.589Z,32.70
2022-08-30T11:21:51.058Z,30.73
2022-08-30T11:24:24.063Z,30.34
2022-08-30T11:26:57.153Z,31.15
2022-08-30T11:29:27.551Z,32.37
2022-08-30T11:32:01.022Z,33.13
2022-08-30T11:34:48.999Z,32.26
2022-08-30T11:37:44.558Z,31.66
2022-08-30T11:40:20.680Z,32.18
2022-08-30T11:42:50.941Z,30.86
2022-08-30T11:45:25.697Z,34.11
2022-08-30T11:48:05.887Z,31.93
2022-08-30T11:50:48.505Z,30.26
2022-08-30T11:53:45.522Z,30.46
2022-08-30T11:56:34.144Z,32.31
2022-08-30T11:59:11.442Z,32.60
2022-08-30T12:01:49.737Z,32.83
2022-08-30T12:04:19.630Z,32.76
2022-08-30T12:07:04.378Z,32.39
2022-08-30T12:09:51.400Z,30.16
2022-08-30T12:12:39.348Z,31.58
2022-08-30T12:15:06.586Z,32.06
2022-08-30T12:18:16.593Z,32.57
2022-08-30T12:20:48.501Z,32.41
2022-08-30T12:23:47.918Z,33.05
2022-08-30T12:26:25.081Z,32.58
2022-08-30T12:29:22.407Z,32.56
2022-08-30T12:31:58.736Z,32.62
2022-08-30T12:34:53.973Z,32.48
2022-08-30T12:37:36.347Z,32.82
2022-08-30T12:40:14.847Z,32.65
2022-08-30T12:43:00.532Z,32.64
2022-08-30T12:45:50.765Z,32.59
2022-08-30T12:48:20.007Z,32.15
2022-08-30T12:50:55.559Z,32.27
2022-08-30T12:53:31.796Z,32.92
2022-08-30T12:56:09.757Z,33.05
2022-08-30T12:58:50.639Z,32.89
2022-08-30T13:01:29.715Z,33.81
2022-08-30T13:04:25.718Z,33.77
2022-08-30T13:06:58.592Z,32.75
2022-08-30T13:09:38.996Z,34.04
2022-08-30T13:12:20.897Z,34.57
2022-08-30T13:14:49.556Z,35.23
2022-08-30T13:17:19.348Z,35.41
2022-08-30T13:20:12.405Z,36.70
2022-08-30T13:22:43.363Z,36.54
2022-08-30T13:25:11.712Z,35.42
2022-08-30T13:27:40.013Z,33.48
2022-08-30T13:30:14.634Z,33.35
2022-08-30T13:32:42.473Z,32.74
2022-08-30T13:35:11.544Z,31.97
2022-08-30T13:37:47.404Z,32.03
2022-08-30T13:40:20.843Z,31.94
2022-08-30T13:42:48.530Z,32.64
2022-08-30T13:48:06.587Z,31.91
2022-08-30T13:50:33.802Z,31.26
2022-08-30T13:53:00.845Z,31.73
2022-08-30T13:55:28.490Z,31.27
2022-08-30T13:57:57.351Z,32.09
2022-08-30T14:00:26.466Z,32.47
2022-08-30T14:02:57.583Z,32.94
2022-08-30T14:05:48.135Z,32.14
2022-08-30T14:11:12.495Z,30.95
2022-08-30T14:14:14.773Z,31.04
2022-08-30T14:16:28.846Z,31.39
2022-08-30T14:18:56.533Z,31.70
2022-08-30T14:21:24.370Z,30.95
2022-08-30T14:23:57.631Z,30.76
2022-08-30T14:26:32.216Z,29.76
2022-08-30T14:29:03.544Z,30.48
2022-08-30T14:31:32.633Z,29.99
2022-08-30T14:34:03.330Z,30.94
2022-08-30T14:36:31.797Z,30.45
2022-08-30T14:38:58.997Z,30.67
2022-08-30T14:41:26.163Z,31.57
2022-08-30T14:43:53.271Z,31.03
2022-08-30T14:46:22.053Z,31.66
2022-08-30T14:48:50.371Z,31.08
2022-08-30T14:51:20.720Z,31.91
2022-08-30T14:53:50.565Z,31.59
2022-08-30T14:56:20.101Z,31.68
2022-08-30T14:58:53.037Z,30.28
2022-08-30T15:01:22.352Z,31.48
2022-08-30T15:03:49.372Z,31.27
2022-08-30T15:06:18.593Z,31.15
2022-08-30T15:08:48.309Z,29.74
2022-08-30T15:11:18.665Z,31.05
2022-08-30T15:13:46.072Z,30.60
2022-08-30T15:16:24.847Z,30.38
2022-08-30T15:18:52.383Z,30.85
2022-08-30T15:21:33.816Z,31.55
2022-08-30T15:24:04.567Z,30.77
2022-08-30T15:26:31.827Z,30.98
2022-08-30T15:28:59.493Z,31.19
2022-08-30T15:31:28.820Z,31.13
2022-08-30T15:33:56.616Z,31.12
2022-08-30T15:36:25.454Z,30.55
2022-08-30T15:38:55.465Z,30.31
2022-08-30T15:41:24.061Z,30.19
2022-08-30T15:43:52.932Z,29.97
2022-08-30T15:46:30.754Z,30.90
2022-08-30T15:49:14.741Z,30.55
2022-08-30T15:51:45.836Z,30.64
2022-08-30T15:54:15.660Z,31.32
2022-08-30T15:56:44.560Z,30.98
2022-08-30T15:59:15.202Z,30.65
2022-08-30T16:01:43.756Z,31.01
2022-08-30T16:04:11.345Z,31.03
2022-08-30T16:06:39.740Z,31.10
2022-08-30T16:09:10.100Z,31.08
2022-08-30T16:11:38.211Z,30.70
2022-08-30T16:14:06.577Z,30.13
2022-08-30T16:16:37.727Z,29.88
2022-08-30T16:19:07.338Z,30.02
2022-08-30T16:21:39.816Z,30.71
2022-08-30T16:24:10.562Z,30.39
2022-08-30T16:26:42.821Z,30.64
2022-08-30T16:29:10.725Z,30.95
2022-08-30T16:31:38.376Z,30.08
2022-08-30T16:34:06.849Z,30.08
2022-08-30T16:36:35.929Z,30.17
2022-08-30T16:39:08.405Z,30.51
2022-08-30T16:41:37.487Z,30.91
2022-08-30T16:44:05.724Z,30.28
2022-08-30T16:46:34.357Z,30.53
2022-08-30T16:49:02.261Z,30.57
2022-08-30T16:51:32.821Z,30.97
2022-08-30T16:54:07.861Z,31.03
2022-08-30T16:56:37.319Z,30.47
2022-08-30T16:59:10.911Z,30.25
2022-08-30T17:01:39.210Z,30.64
2022-08-30T17:04:08.137Z,30.41
2022-08-30T17:06:36.075Z,30.07
2022-08-30T17:09:05.251Z,29.99
2022-08-30T17:11:33.835Z,30.20
2022-08-30T17:14:01.556Z,29.94
2022-08-30T17:16:30.034Z,30.48
2022-08-30T17:18:59.916Z,30.10
2022-08-30T17:21:29.339Z,30.13
2022-08-30T17:24:02.306Z,30.70
2022-08-30T17:26:32.840Z,29.91
2022-08-30T17:29:00.847Z,29.97
2022-08-30T17:31:30.411Z,30.18
2022-08-30T17:34:03.364Z,29.72
2022-08-30T17:36:35.507Z,30.51
2022-08-30T17:39:09.580Z,29.64
2022-08-30T17:41:45.221Z,29.77
2022-08-30T17:44:28.420Z,29.93
2022-08-30T17:46:57.126Z,30.22
2022-08-30T17:49:26.816Z,29.58
2022-08-30T17:51:56.863Z,30.31
2022-08-30T17:54:26.629Z,29.47
2022-08-30T17:56:55.063Z,29.05
2022-08-30T17:59:25.118Z,29.84
2022-08-30T18:01:55.019Z,29.81
2022-08-30T18:04:25.211Z,30.23
2022-08-30T18:06:53.203Z,29.76
2022-08-30T18:09:20.733Z,29.50
2022-08-30T18:11:48.591Z,29.92
2022-08-30T18:14:17.560Z,29.51
2022-08-30T18:16:50.000Z,29.47
2022-08-30T18:19:20.785Z,29.84
2022-08-30T18:21:48.229Z,28.52
2022-08-30T18:24:16.710Z,28.64
2022-08-30T18:26:43.841Z,29.64
2022-08-30T18:29:11.324Z,29.13
2022-08-30T18:31:38.703Z,29.61
2022-08-30T18:34:06.985Z,29.20
2022-08-30T18:36:40.095Z,29.38
2022-08-30T18:39:09.127Z,29.55
2022-08-30T18:41:42.282Z,29.23
2022-08-30T18:44:26.699Z,28.74
2022-08-30T18:46:56.392Z,28.70
2022-08-30T18:49:42.156Z,28.91
2022-08-30T18:52:10.276Z,29.30
2022-08-30T18:54:48.493Z,29.72
2022-08-30T18:57:20.114Z,29.98
2022-08-30T18:59:47.975Z,29.81
2022-08-30T19:02:16.541Z,29.79
2022-08-30T19:04:45.725Z,29.72
2022-08-30T19:07:16.858Z,29.93
2022-08-30T19:09:45.518Z,29.71
2022-08-30T19:12:12.866Z,29.50
2022-08-30T19:14:40.376Z,29.62
2022-08-30T19:17:08.546Z,29.84
2022-08-30T19:19:48.858Z,29.57
2022-08-30T19:22:19.964Z,29.57
2022-08-30T19:24:49.782Z,29.42
2022-08-30T19:27:21.310Z,29.47
2022-08-30T19:29:53.661Z,29.79
2022-08-30T19:32:21.888Z,29.64
2022-08-30T19:34:49.353Z,29.48
2022-08-30T19:37:18.532Z,29.30
2022-08-30T19:39:46.697Z,29.19
2022-08-30T19:42:14.314Z,29.33
2022-08-30T19:44:41.352Z,29.18
2022-08-30T19:47:08.431Z,29.10
2022-08-30T19:49:36.007Z,29.13
2022-08-30T19:52:03.664Z,29.58
2022-08-30T19:54:30.702Z,29.11
2022-08-30T19:56:57.738Z,29.28
2022-08-30T19:59:27.531Z,29.35
2022-08-30T20:01:56.889Z,29.23
2022-08-30T20:04:24.025Z,29.08
2022-08-30T20:06:51.294Z,29.25
2022-08-30T20:09:18.973Z,29.24
2022-08-30T20:11:46.035Z,28.88
2022-08-30T20:14:19.721Z,28.88
2022-08-30T20:16:47.508Z,29.21
2022-08-30T20:19:16.008Z,29.09
2022-08-30T20:21:46.065Z,29.06
2022-08-30T20:24:14.765Z,29.26
2022-08-30T20:26:42.304Z,29.07
2022-08-30T20:29:09.637Z,29.19
2022-08-30T20:31:36.957Z,29.16
2022-08-30T20:34:04.967Z,29.09
2022-08-30T20:36:33.630Z,29.07
2022-08-30T20:39:01.940Z,28.88
2022-08-30T20:41:31.025Z,28.90
2022-08-30T20:43:58.310Z,28.68
2022-08-30T20:46:25.607Z,28.72
2022-08-30T20:48:53.095Z,28.73
2022-08-30T20:51:27.472Z,28.68
2022-08-30T20:53:55.612Z,28.67
2022-08-30T20:56:23.233Z,28.69
2022-08-30T20:58:50.609Z,28.63
2022-08-30T21:01:18.217Z,28.54
2022-08-30T21:03:47.638Z,28.50
2022-08-30T21:06:16.687Z,28.31
2022-08-30T21:08:43.982Z,28.43
2022-08-30T21:11:11.097Z,28.40
2022-08-30T21:13:38.878Z,28.54
2022-08-30T21:16:07.427Z,28.56
2022-08-30T21:18:36.766Z,28.60
2022-08-30T21:21:22.535Z,28.76
2022-08-30T21:23:50.282Z,28.61
2022-08-30T21:26:18.839Z,28.60
2022-08-30T21:28:51.584Z,28.66
2022-08-30T21:31:22.460Z,28.53
2022-08-30T21:33:52.373Z,28.40
2022-08-30T21:36:39.645Z,28.43
2022-08-30T21:39:07.766Z,28.39
2022-08-30T21:41:37.379Z,28.37
2022-08-30T21:44:16.246Z,28.27
2022-08-30T21:46:44.624Z,28.53
2022-08-30T21:49:13.959Z,28.59
2022-08-30T21:51:44.252Z,27.91
2022-08-30T21:54:13.468Z,28.08
2022-08-30T21:56:43.574Z,27.93
2022-08-30T21:59:12.516Z,28.03
2022-08-30T22:01:41.150Z,27.24
2022-08-30T22:04:10.092Z,27.63
2022-08-30T22:06:43.186Z,27.75
2022-08-30T22:09:15.957Z,26.53
2022-08-30T22:11:44.648Z,26.98
2022-08-30T22:14:12.860Z,27.11
2022-08-30T22:16:40.715Z,27.33
2022-08-30T22:19:11.619Z,27.55
2022-08-30T22:21:41.826Z,27.59
2022-08-30T22:24:09.866Z,27.81
2022-08-30T22:26:37.431Z,27.71
2022-08-30T22:29:06.813Z,27.29
2022-08-30T22:31:34.764Z,27.77
2022-08-30T22:34:02.231Z,27.90
2022-08-30T22:36:32.593Z,27.91
2022-08-30T22:39:02.019Z,27.93
2022-08-30T22:41:31.713Z,27.52
2022-08-30T22:43:58.965Z,27.19
2022-08-30T22:46:34.004Z,27.35
2022-08-30T22:49:07.956Z,27.35
2022-08-30T22:51:36.422Z,27.56
2022-08-30T22:54:06.027Z,27.19
2022-08-30T22:56:35.832Z,27.02
2022-08-30T22:59:03.472Z,27.62
2022-08-30T23:01:35.165Z,27.50
2022-08-30T23:04:03.012Z,27.74
2022-08-30T23:06:30.566Z,27.65
2022-08-30T23:08:58.037Z,27.65
2022-08-30T23:11:25.674Z,27.71
2022-08-30T23:13:53.803Z,28.01
2022-08-30T23:16:22.028Z,27.69
2022-08-30T23:18:49.377Z,27.67
2022-08-30T23:21:22.207Z,27.47
2022-08-30T23:24:13.532Z,27.20
2022-08-30T23:27:01.153Z,27.03
2022-08-30T23:29:49.100Z,26.98
2022-08-30T23:32:34.864Z,27.10
2022-08-30T23:35:20.904Z,27.16
2022-08-30T23:38:12.503Z,27.19
2022-08-30T23:40:58.460Z,26.90
2022-08-30T23:43:44.325Z,27.20
2022-08-30T23:46:29.852Z,27.23
2022-08-30T23:49:15.835Z,27.12
2022-08-30T23:52:01.131Z,27.12
2022-08-30T23:54:47.097Z,27.41
2022-08-30T23:57:32.875Z,27.23
